sensor_id;sensor_type;location;lat;lon;timestamp;pressure;altitude;pressure_sealevel;temperature;humidity
10706;BME280;5404;42.656;23.336;2023-11-19T00:02:08;94738.84;;;2.26;65.29
10706;BME280;5404;42.656;23.336;2023-11-19T00:04:37;94742.22;;;2.23;65.63
10706;BME280;5404;42.656;23.336;2023-11-19T00:07:06;94741.88;;;2.25;65.42
10706;BME280;5404;42.656;23.336;2023-11-19T00:09:33;94733.25;;;2.16;65.30
10706;BME280;5404;42.656;23.336;2023-11-19T00:11:59;94734.81;;;2.17;65.00
10706;BME280;5404;42.656;23.336;2023-11-19T00:14:28;94736.72;;;2.16;65.19
10706;BME280;5404;42.656;23.336;2023-11-19T00:16:54;94735.59;;;2.17;65.34
10706;BME280;5404;42.656;23.336;2023-11-19T00:19:19;94743.19;;;2.12;65.10
10706;BME280;5404;42.656;23.336;2023-11-19T00:21:47;94737.09;;;2.15;64.96
10706;BME280;5404;42.656;23.336;2023-11-19T00:24:12;94741.03;;;2.21;65.70
10706;BME280;5404;42.656;23.336;2023-11-19T00:26:38;94747.13;;;2.18;65.03
10706;BME280;5404;42.656;23.336;2023-11-19T00:29:04;94735.25;;;2.19;65.36
10706;BME280;5404;42.656;23.336;2023-11-19T00:31:29;94738.34;;;2.21;65.15
10706;BME280;5404;42.656;23.336;2023-11-19T00:33:55;94730.16;;;2.14;65.21
10706;BME280;5404;42.656;23.336;2023-11-19T00:36:20;94744.13;;;2.23;65.06
10706;BME280;5404;42.656;23.336;2023-11-19T00:38:46;94746.00;;;2.19;64.76
10706;BME280;5404;42.656;23.336;2023-11-19T00:41:11;94748.72;;;2.22;64.98
10706;BME280;5404;42.656;23.336;2023-11-19T00:43:37;94763.81;;;2.27;65.29
10706;BME280;5404;42.656;23.336;2023-11-19T00:46:03;94754.28;;;2.10;64.98
10706;BME280;5404;42.656;23.336;2023-11-19T00:48:28;94755.06;;;2.11;65.87
10706;BME280;5404;42.656;23.336;2023-11-19T00:50:54;94760.78;;;2.09;65.30
10706;BME280;5404;42.656;23.336;2023-11-19T00:53:19;94750.94;;;2.17;65.16
10706;BME280;5404;42.656;23.336;2023-11-19T00:55:44;94751.53;;;2.07;65.78
10706;BME280;5404;42.656;23.336;2023-11-19T00:58:10;94748.31;;;2.20;65.35
10706;BME280;5404;42.656;23.336;2023-11-19T01:00:35;94754.84;;;2.19;65.81
10706;BME280;5404;42.656;23.336;2023-11-19T01:03:01;94754.06;;;2.19;65.33
10706;BME280;5404;42.656;23.336;2023-11-19T01:05:26;94759.38;;;2.15;65.92
10706;BME280;5404;42.656;23.336;2023-11-19T01:07:53;94758.59;;;2.15;65.97
10706;BME280;5404;42.656;23.336;2023-11-19T01:10:19;94768.44;;;2.07;66.00
10706;BME280;5404;42.656;23.336;2023-11-19T01:12:46;94759.84;;;2.21;65.72
10706;BME280;5404;42.656;23.336;2023-11-19T01:15:11;94763.91;;;2.11;65.97
10706;BME280;5404;42.656;23.336;2023-11-19T01:17:39;94757.03;;;2.14;65.12
10706;BME280;5404;42.656;23.336;2023-11-19T01:20:05;94759.44;;;2.19;66.04
10706;BME280;5404;42.656;23.336;2023-11-19T01:22:32;94756.63;;;2.12;65.96
10706;BME280;5404;42.656;23.336;2023-11-19T01:24:58;94753.16;;;2.11;65.72
10706;BME280;5404;42.656;23.336;2023-11-19T01:27:24;94755.75;;;2.08;66.13
10706;BME280;5404;42.656;23.336;2023-11-19T01:29:50;94747.44;;;2.13;65.69
10706;BME280;5404;42.656;23.336;2023-11-19T01:32:15;94751.06;;;2.24;65.93
10706;BME280;5404;42.656;23.336;2023-11-19T01:34:41;94758.31;;;2.20;65.44
10706;BME280;5404;42.656;23.336;2023-11-19T01:37:07;94762.53;;;2.21;65.25
10706;BME280;5404;42.656;23.336;2023-11-19T01:39:34;94765.22;;;2.21;64.92
10706;BME280;5404;42.656;23.336;2023-11-19T01:42:00;94774.06;;;2.21;65.16
10706;BME280;5404;42.656;23.336;2023-11-19T01:44:25;94760.22;;;2.19;64.53
10706;BME280;5404;42.656;23.336;2023-11-19T01:46:51;94748.31;;;1.98;65.16
10706;BME280;5404;42.656;23.336;2023-11-19T01:49:17;94759.72;;;2.14;64.67
10706;BME280;5404;42.656;23.336;2023-11-19T01:51:44;94772.31;;;2.10;65.00
10706;BME280;5404;42.656;23.336;2023-11-19T01:54:10;94756.94;;;1.87;65.14
10706;BME280;5404;42.656;23.336;2023-11-19T01:56:36;94778.69;;;2.02;65.33
10706;BME280;5404;42.656;23.336;2023-11-19T01:59:07;94775.03;;;1.90;64.90
10706;BME280;5404;42.656;23.336;2023-11-19T02:01:34;94784.78;;;1.99;64.72
10706;BME280;5404;42.656;23.336;2023-11-19T02:04:03;94768.75;;;1.83;65.18
10706;BME280;5404;42.656;23.336;2023-11-19T02:06:30;94785.06;;;1.93;64.73
10706;BME280;5404;42.656;23.336;2023-11-19T02:08:57;94768.16;;;1.93;64.67
10706;BME280;5404;42.656;23.336;2023-11-19T02:11:22;94770.50;;;1.94;63.63
10706;BME280;5404;42.656;23.336;2023-11-19T02:13:48;94773.19;;;1.94;64.45
10706;BME280;5404;42.656;23.336;2023-11-19T02:16:13;94769.81;;;1.98;64.02
10706;BME280;5404;42.656;23.336;2023-11-19T02:18:39;94776.72;;;1.99;64.53
10706;BME280;5404;42.656;23.336;2023-11-19T02:21:05;94761.22;;;1.92;63.63
10706;BME280;5404;42.656;23.336;2023-11-19T02:23:30;94765.25;;;2.02;64.18
10706;BME280;5404;42.656;23.336;2023-11-19T02:26:02;94761.13;;;2.08;63.28
10706;BME280;5404;42.656;23.336;2023-11-19T02:28:28;94767.91;;;1.98;64.11
10706;BME280;5404;42.656;23.336;2023-11-19T02:30:53;94769.03;;;1.97;63.85
10706;BME280;5404;42.656;23.336;2023-11-19T02:33:19;94763.66;;;1.97;63.68
10706;BME280;5404;42.656;23.336;2023-11-19T02:35:44;94763.56;;;1.93;64.03
10706;BME280;5404;42.656;23.336;2023-11-19T02:38:10;94747.47;;;1.74;64.28
10706;BME280;5404;42.656;23.336;2023-11-19T02:40:36;94752.69;;;1.86;64.47
10706;BME280;5404;42.656;23.336;2023-11-19T02:43:01;94761.75;;;1.78;64.32
10706;BME280;5404;42.656;23.336;2023-11-19T02:45:30;94768.66;;;1.79;64.47
10706;BME280;5404;42.656;23.336;2023-11-19T02:47:56;94764.81;;;1.77;64.77
10706;BME280;5404;42.656;23.336;2023-11-19T02:50:21;94763.78;;;1.66;65.32
10706;BME280;5404;42.656;23.336;2023-11-19T02:52:53;94769.13;;;1.62;65.14
10706;BME280;5404;42.656;23.336;2023-11-19T02:55:18;94766.69;;;1.57;65.10
10706;BME280;5404;42.656;23.336;2023-11-19T02:57:44;94733.78;;;1.41;65.56
10706;BME280;5404;42.656;23.336;2023-11-19T03:00:17;94753.63;;;1.55;64.94
10706;BME280;5404;42.656;23.336;2023-11-19T03:02:44;94744.53;;;1.41;65.80
10706;BME280;5404;42.656;23.336;2023-11-19T03:05:12;94749.16;;;1.44;65.74
10706;BME280;5404;42.656;23.336;2023-11-19T03:07:43;94755.66;;;1.43;65.85
10706;BME280;5404;42.656;23.336;2023-11-19T03:10:09;94756.44;;;1.43;65.42
10706;BME280;5404;42.656;23.336;2023-11-19T03:12:38;94753.41;;;1.45;64.99
10706;BME280;5404;42.656;23.336;2023-11-19T03:15:03;94755.81;;;1.50;65.14
10706;BME280;5404;42.656;23.336;2023-11-19T03:17:29;94772.69;;;1.50;65.30
10706;BME280;5404;42.656;23.336;2023-11-19T03:19:54;94762.69;;;1.47;65.15
10706;BME280;5404;42.656;23.336;2023-11-19T03:22:20;94746.97;;;1.49;64.95
10706;BME280;5404;42.656;23.336;2023-11-19T03:24:46;94763.94;;;1.53;64.80
10706;BME280;5404;42.656;23.336;2023-11-19T03:27:11;94765.00;;;1.49;65.60
10706;BME280;5404;42.656;23.336;2023-11-19T03:29:37;94760.81;;;1.51;65.17
10706;BME280;5404;42.656;23.336;2023-11-19T03:32:04;94762.72;;;1.51;65.20
10706;BME280;5404;42.656;23.336;2023-11-19T03:34:29;94765.28;;;1.44;65.59
10706;BME280;5404;42.656;23.336;2023-11-19T03:36:55;94765.72;;;1.46;65.38
10706;BME280;5404;42.656;23.336;2023-11-19T03:39:22;94762.88;;;1.58;65.42
10706;BME280;5404;42.656;23.336;2023-11-19T03:41:50;94763.94;;;1.53;64.99
10706;BME280;5404;42.656;23.336;2023-11-19T03:44:15;94774.34;;;1.55;65.39
10706;BME280;5404;42.656;23.336;2023-11-19T03:46:42;94780.53;;;1.59;64.90
10706;BME280;5404;42.656;23.336;2023-11-19T03:49:07;94776.72;;;1.60;65.56
10706;BME280;5404;42.656;23.336;2023-11-19T03:51:33;94790.59;;;1.62;65.53
10706;BME280;5404;42.656;23.336;2023-11-19T03:54:00;94793.84;;;1.71;64.33
10706;BME280;5404;42.656;23.336;2023-11-19T03:56:26;94792.28;;;1.70;64.18
10706;BME280;5404;42.656;23.336;2023-11-19T03:58:52;94783.66;;;1.61;64.60
10706;BME280;5404;42.656;23.336;2023-11-19T04:01:18;94796.03;;;1.66;65.10
10706;BME280;5404;42.656;23.336;2023-11-19T04:03:43;94800.91;;;1.60;65.32
10706;BME280;5404;42.656;23.336;2023-11-19T04:06:09;94798.28;;;1.64;65.25
10706;BME280;5404;42.656;23.336;2023-11-19T04:08:35;94804.44;;;1.64;64.93
10706;BME280;5404;42.656;23.336;2023-11-19T04:11:02;94806.00;;;1.65;65.26
10706;BME280;5404;42.656;23.336;2023-11-19T04:13:28;94807.84;;;1.61;64.76
10706;BME280;5404;42.656;23.336;2023-11-19T04:15:53;94816.38;;;1.67;65.05
10706;BME280;5404;42.656;23.336;2023-11-19T04:18:20;94818.38;;;1.70;65.09
10706;BME280;5404;42.656;23.336;2023-11-19T04:20:46;94819.31;;;1.77;64.85
10706;BME280;5404;42.656;23.336;2023-11-19T04:23:11;94806.13;;;1.72;65.05
10706;BME280;5404;42.656;23.336;2023-11-19T04:25:37;94808.47;;;1.74;65.02
10706;BME280;5404;42.656;23.336;2023-11-19T04:28:02;94794.56;;;1.68;64.73
10706;BME280;5404;42.656;23.336;2023-11-19T04:30:28;94787.75;;;1.74;64.85
10706;BME280;5404;42.656;23.336;2023-11-19T04:32:53;94800.84;;;1.76;64.16
10706;BME280;5404;42.656;23.336;2023-11-19T04:35:19;94819.31;;;1.77;64.63
10706;BME280;5404;42.656;23.336;2023-11-19T04:37:44;94817.38;;;1.78;64.15
10706;BME280;5404;42.656;23.336;2023-11-19T04:40:11;94815.94;;;1.65;63.77
10706;BME280;5404;42.656;23.336;2023-11-19T04:42:37;94816.88;;;1.72;63.65
10706;BME280;5404;42.656;23.336;2023-11-19T04:45:06;94832.44;;;1.82;64.42
10706;BME280;5404;42.656;23.336;2023-11-19T04:47:33;94823.94;;;1.80;64.30
10706;BME280;5404;42.656;23.336;2023-11-19T04:49:58;94823.25;;;1.83;63.87
10706;BME280;5404;42.656;23.336;2023-11-19T04:52:24;94827.34;;;1.77;64.02
10706;BME280;5404;42.656;23.336;2023-11-19T04:54:49;94832.44;;;1.82;63.46
10706;BME280;5404;42.656;23.336;2023-11-19T04:57:15;94830.59;;;1.86;63.16
10706;BME280;5404;42.656;23.336;2023-11-19T04:59:40;94839.44;;;1.87;63.42
10706;BME280;5404;42.656;23.336;2023-11-19T05:02:08;94843.34;;;1.89;63.60
10706;BME280;5404;42.656;23.336;2023-11-19T05:04:33;94836.09;;;1.93;62.83
10706;BME280;5404;42.656;23.336;2023-11-19T05:06:59;94848.63;;;1.86;63.03
10706;BME280;5404;42.656;23.336;2023-11-19T05:09:24;94853.69;;;1.72;62.86
10706;BME280;5404;42.656;23.336;2023-11-19T05:11:50;94868.19;;;1.67;63.22
10706;BME280;5404;42.656;23.336;2023-11-19T05:14:15;94866.78;;;1.73;63.92
10706;BME280;5404;42.656;23.336;2023-11-19T05:16:41;94862.72;;;1.64;63.64
10706;BME280;5404;42.656;23.336;2023-11-19T05:19:08;94866.19;;;1.64;63.82
10706;BME280;5404;42.656;23.336;2023-11-19T05:21:34;94863.09;;;1.62;63.51
10706;BME280;5404;42.656;23.336;2023-11-19T05:24:01;94856.75;;;1.70;63.51
10706;BME280;5404;42.656;23.336;2023-11-19T05:26:29;94869.03;;;1.71;63.86
10706;BME280;5404;42.656;23.336;2023-11-19T05:28:55;94853.78;;;1.75;62.75
10706;BME280;5404;42.656;23.336;2023-11-19T05:31:21;94851.59;;;1.81;63.15
10706;BME280;5404;42.656;23.336;2023-11-19T05:33:46;94852.56;;;1.73;63.61
10706;BME280;5404;42.656;23.336;2023-11-19T05:36:12;94849.38;;;1.67;63.65
10706;BME280;5404;42.656;23.336;2023-11-19T05:38:38;94860.41;;;1.62;63.84
10706;BME280;5404;42.656;23.336;2023-11-19T05:41:04;94873.56;;;1.67;63.62
10706;BME280;5404;42.656;23.336;2023-11-19T05:43:30;94858.72;;;1.73;63.41
10706;BME280;5404;42.656;23.336;2023-11-19T05:45:56;94869.19;;;1.78;63.41
10706;BME280;5404;42.656;23.336;2023-11-19T05:48:21;94874.00;;;1.69;63.67
10706;BME280;5404;42.656;23.336;2023-11-19T05:50:47;94877.88;;;1.72;64.08
10706;BME280;5404;42.656;23.336;2023-11-19T05:53:14;94866.94;;;1.80;63.60
10706;BME280;5404;42.656;23.336;2023-11-19T05:55:40;94868.09;;;1.64;63.47
10706;BME280;5404;42.656;23.336;2023-11-19T05:58:13;94867.59;;;1.58;64.24
10706;BME280;5404;42.656;23.336;2023-11-19T06:00:39;94858.91;;;1.65;64.06
10706;BME280;5404;42.656;23.336;2023-11-19T06:03:07;94869.91;;;1.75;63.56
10706;BME280;5404;42.656;23.336;2023-11-19T06:05:34;94874.56;;;1.78;63.41
10706;BME280;5404;42.656;23.336;2023-11-19T06:07:59;94886.16;;;1.82;63.72
10706;BME280;5404;42.656;23.336;2023-11-19T06:10:25;94895.47;;;1.69;64.31
10706;BME280;5404;42.656;23.336;2023-11-19T06:12:59;94894.91;;;1.79;64.43
10706;BME280;5404;42.656;23.336;2023-11-19T06:15:26;94905.13;;;1.89;63.33
10706;BME280;5404;42.656;23.336;2023-11-19T06:17:52;94889.69;;;1.86;63.14
10706;BME280;5404;42.656;23.336;2023-11-19T06:20:18;94894.56;;;1.81;63.70
10706;BME280;5404;42.656;23.336;2023-11-19T06:22:45;94889.53;;;1.60;64.08
10706;BME280;5404;42.656;23.336;2023-11-19T06:25:12;94887.97;;;1.59;64.51
10706;BME280;5404;42.656;23.336;2023-11-19T06:27:40;94886.66;;;1.69;63.87
10706;BME280;5404;42.656;23.336;2023-11-19T06:30:06;94898.72;;;1.78;64.02
10706;BME280;5404;42.656;23.336;2023-11-19T06:32:32;94882.88;;;1.54;63.71
10706;BME280;5404;42.656;23.336;2023-11-19T06:34:58;94863.25;;;1.69;64.44
10706;BME280;5404;42.656;23.336;2023-11-19T06:37:23;94880.50;;;1.68;63.49
10706;BME280;5404;42.656;23.336;2023-11-19T06:39:50;94877.38;;;1.66;64.03
10706;BME280;5404;42.656;23.336;2023-11-19T06:42:15;94894.28;;;1.86;63.49
10706;BME280;5404;42.656;23.336;2023-11-19T06:44:43;94886.75;;;1.91;62.95
10706;BME280;5404;42.656;23.336;2023-11-19T06:47:10;94885.97;;;2.10;63.66
10706;BME280;5404;42.656;23.336;2023-11-19T06:49:36;94886.91;;;1.99;62.39
10706;BME280;5404;42.656;23.336;2023-11-19T06:52:01;94889.44;;;1.91;62.36
10706;BME280;5404;42.656;23.336;2023-11-19T06:54:26;94882.34;;;1.83;62.85
10706;BME280;5404;42.656;23.336;2023-11-19T06:56:52;94890.81;;;1.85;63.42
10706;BME280;5404;42.656;23.336;2023-11-19T06:59:17;94852.63;;;1.57;63.22
10706;BME280;5404;42.656;23.336;2023-11-19T07:01:43;94901.03;;;1.95;62.08
10706;BME280;5404;42.656;23.336;2023-11-19T07:04:11;94881.72;;;1.90;62.11
10706;BME280;5404;42.656;23.336;2023-11-19T07:06:37;94898.91;;;2.05;61.70
10706;BME280;5404;42.656;23.336;2023-11-19T07:09:03;94906.69;;;2.10;62.14
10706;BME280;5404;42.656;23.336;2023-11-19T07:11:38;94907.69;;;2.02;62.14
10706;BME280;5404;42.656;23.336;2023-11-19T07:14:04;94896.88;;;1.98;61.96
10706;BME280;5404;42.656;23.336;2023-11-19T07:16:31;94912.84;;;2.10;62.22
10706;BME280;5404;42.656;23.336;2023-11-19T07:18:57;94911.34;;;1.93;61.69
10706;BME280;5404;42.656;23.336;2023-11-19T07:21:24;94915.03;;;2.05;61.85
10706;BME280;5404;42.656;23.336;2023-11-19T07:23:49;94929.03;;;2.14;61.81
10706;BME280;5404;42.656;23.336;2023-11-19T07:26:17;94923.31;;;1.96;62.12
10706;BME280;5404;42.656;23.336;2023-11-19T07:28:42;94917.00;;;1.88;62.10
10706;BME280;5404;42.656;23.336;2023-11-19T07:31:10;94934.09;;;2.00;61.88
10706;BME280;5404;42.656;23.336;2023-11-19T07:33:37;94935.81;;;2.08;62.37
10706;BME280;5404;42.656;23.336;2023-11-19T07:36:02;94950.88;;;1.93;61.31
10706;BME280;5404;42.656;23.336;2023-11-19T07:38:28;94943.88;;;1.88;60.89
10706;BME280;5404;42.656;23.336;2023-11-19T07:40:53;94940.59;;;1.79;62.07
10706;BME280;5404;42.656;23.336;2023-11-19T07:43:19;94961.53;;;1.89;61.34
10706;BME280;5404;42.656;23.336;2023-11-19T07:45:44;94963.88;;;1.91;61.57
10706;BME280;5404;42.656;23.336;2023-11-19T07:48:11;94962.22;;;1.86;61.57
10706;BME280;5404;42.656;23.336;2023-11-19T07:50:39;94953.03;;;1.87;62.03
10706;BME280;5404;42.656;23.336;2023-11-19T07:53:06;94955.34;;;1.70;61.12
10706;BME280;5404;42.656;23.336;2023-11-19T07:55:33;94962.47;;;1.46;61.66
10706;BME280;5404;42.656;23.336;2023-11-19T07:57:58;94971.47;;;1.54;62.53
10706;BME280;5404;42.656;23.336;2023-11-19T08:00:23;94969.63;;;1.58;62.02
10706;BME280;5404;42.656;23.336;2023-11-19T08:02:49;94963.75;;;1.52;62.19
10706;BME280;5404;42.656;23.336;2023-11-19T08:05:14;94970.25;;;1.67;62.18
10706;BME280;5404;42.656;23.336;2023-11-19T08:07:40;94973.78;;;1.71;61.73
10706;BME280;5404;42.656;23.336;2023-11-19T08:10:05;94982.72;;;1.75;61.52
10706;BME280;5404;42.656;23.336;2023-11-19T08:12:35;94976.84;;;1.70;62.10
10706;BME280;5404;42.656;23.336;2023-11-19T08:15:02;94973.25;;;1.81;61.30
10706;BME280;5404;42.656;23.336;2023-11-19T08:17:27;94979.88;;;1.68;62.28
10706;BME280;5404;42.656;23.336;2023-11-19T08:19:53;94988.69;;;1.69;62.04
10706;BME280;5404;42.656;23.336;2023-11-19T08:22:18;94994.16;;;1.72;62.07
10706;BME280;5404;42.656;23.336;2023-11-19T08:24:44;94974.06;;;1.66;62.21
10706;BME280;5404;42.656;23.336;2023-11-19T08:27:09;94971.63;;;1.77;61.73
10706;BME280;5404;42.656;23.336;2023-11-19T08:29:36;94980.22;;;1.51;62.42
10706;BME280;5404;42.656;23.336;2023-11-19T08:32:01;94977.19;;;1.68;61.95
10706;BME280;5404;42.656;23.336;2023-11-19T08:34:28;94977.84;;;1.81;61.88
10706;BME280;5404;42.656;23.336;2023-11-19T08:36:54;94976.72;;;1.82;62.09
10706;BME280;5404;42.656;23.336;2023-11-19T08:39:19;94972.59;;;2.04;61.60
10706;BME280;5404;42.656;23.336;2023-11-19T08:41:47;94989.16;;;2.06;60.87
10706;BME280;5404;42.656;23.336;2023-11-19T08:44:14;94992.66;;;2.45;60.94
10706;BME280;5404;42.656;23.336;2023-11-19T08:46:47;94991.06;;;2.40;59.33
10706;BME280;5404;42.656;23.336;2023-11-19T08:49:12;94985.53;;;2.52;59.47
10706;BME280;5404;42.656;23.336;2023-11-19T08:51:38;94979.56;;;2.43;59.83
10706;BME280;5404;42.656;23.336;2023-11-19T08:54:04;94971.66;;;2.50;59.20
10706;BME280;5404;42.656;23.336;2023-11-19T08:56:29;94994.88;;;2.58;58.49
10706;BME280;5404;42.656;23.336;2023-11-19T08:58:58;94992.47;;;2.72;58.61
10706;BME280;5404;42.656;23.336;2023-11-19T09:01:23;94994.00;;;2.93;57.27
10706;BME280;5404;42.656;23.336;2023-11-19T09:03:50;94968.81;;;2.82;57.73
10706;BME280;5404;42.656;23.336;2023-11-19T09:06:15;94972.16;;;2.75;57.42
10706;BME280;5404;42.656;23.336;2023-11-19T09:08:42;94968.72;;;2.78;57.20
10706;BME280;5404;42.656;23.336;2023-11-19T09:11:08;94955.31;;;3.01;57.76
10706;BME280;5404;42.656;23.336;2023-11-19T09:13:34;94956.41;;;3.19;56.59
10706;BME280;5404;42.656;23.336;2023-11-19T09:16:00;94947.31;;;3.27;56.13
10706;BME280;5404;42.656;23.336;2023-11-19T09:18:29;94933.78;;;3.46;55.94
10706;BME280;5404;42.656;23.336;2023-11-19T09:20:55;94913.09;;;3.05;56.11
10706;BME280;5404;42.656;23.336;2023-11-19T09:23:20;94960.59;;;3.39;56.96
10706;BME280;5404;42.656;23.336;2023-11-19T09:25:45;94954.69;;;3.30;57.07
10706;BME280;5404;42.656;23.336;2023-11-19T09:28:11;94958.59;;;3.13;57.71
10706;BME280;5404;42.656;23.336;2023-11-19T09:30:38;94976.03;;;3.42;56.86
10706;BME280;5404;42.656;23.336;2023-11-19T09:33:03;94980.88;;;3.56;56.33
10706;BME280;5404;42.656;23.336;2023-11-19T09:35:29;94959.97;;;3.49;55.91
10706;BME280;5404;42.656;23.336;2023-11-19T09:37:54;94955.16;;;4.41;54.40
10706;BME280;5404;42.656;23.336;2023-11-19T09:40:20;94934.69;;;5.07;51.62
10706;BME280;5404;42.656;23.336;2023-11-19T09:42:45;94923.44;;;5.01;51.62
10706;BME280;5404;42.656;23.336;2023-11-19T09:45:16;94915.59;;;4.52;52.83
10706;BME280;5404;42.656;23.336;2023-11-19T09:47:46;94910.75;;;4.05;53.46
10706;BME280;5404;42.656;23.336;2023-11-19T09:50:20;94917.16;;;4.23;53.70
10706;BME280;5404;42.656;23.336;2023-11-19T09:52:47;94901.59;;;4.40;53.85
10706;BME280;5404;42.656;23.336;2023-11-19T09:55:12;94897.53;;;4.26;53.60
10706;BME280;5404;42.656;23.336;2023-11-19T09:57:39;94898.50;;;4.75;54.11
10706;BME280;5404;42.656;23.336;2023-11-19T10:00:07;94894.88;;;6.96;49.60
10706;BME280;5404;42.656;23.336;2023-11-19T10:02:33;94887.41;;;8.46;44.92
10706;BME280;5404;42.656;23.336;2023-11-19T10:05:04;94886.72;;;10.79;41.69
10706;BME280;5404;42.656;23.336;2023-11-19T10:07:33;94885.22;;;7.98;45.41
10706;BME280;5404;42.656;23.336;2023-11-19T10:10:04;94893.25;;;8.41;43.79
10706;BME280;5404;42.656;23.336;2023-11-19T10:12:30;94882.91;;;9.53;42.15
10706;BME280;5404;42.656;23.336;2023-11-19T10:14:59;94880.75;;;10.87;40.10
10706;BME280;5404;42.656;23.336;2023-11-19T10:17:28;94882.25;;;9.87;39.71
10706;BME280;5404;42.656;23.336;2023-11-19T10:19:57;94883.69;;;7.76;44.55
10706;BME280;5404;42.656;23.336;2023-11-19T10:22:23;94895.31;;;7.41;45.60
10706;BME280;5404;42.656;23.336;2023-11-19T10:24:50;94880.25;;;8.87;42.70
10706;BME280;5404;42.656;23.336;2023-11-19T10:27:15;94867.47;;;10.29;39.70
10706;BME280;5404;42.656;23.336;2023-11-19T10:29:45;94863.22;;;9.87;39.91
10706;BME280;5404;42.656;23.336;2023-11-19T10:32:12;94866.44;;;9.23;40.96
10706;BME280;5404;42.656;23.336;2023-11-19T10:34:38;94873.63;;;7.27;45.18
10706;BME280;5404;42.656;23.336;2023-11-19T10:37:05;94863.44;;;6.56;46.19
10706;BME280;5404;42.656;23.336;2023-11-19T10:39:51;94856.56;;;7.79;44.42
10706;BME280;5404;42.656;23.336;2023-11-19T10:42:19;94867.13;;;8.75;42.96
10706;BME280;5404;42.656;23.336;2023-11-19T10:44:45;94860.81;;;8.89;41.16
10706;BME280;5404;42.656;23.336;2023-11-19T10:47:11;94871.66;;;8.96;41.50
10706;BME280;5404;42.656;23.336;2023-11-19T10:49:38;94857.13;;;9.68;39.98
10706;BME280;5404;42.656;23.336;2023-11-19T10:52:05;94866.13;;;10.06;40.39
10706;BME280;5404;42.656;23.336;2023-11-19T10:54:31;94864.47;;;9.27;40.40
10706;BME280;5404;42.656;23.336;2023-11-19T10:57:02;94845.81;;;10.14;39.29
10706;BME280;5404;42.656;23.336;2023-11-19T10:59:30;94842.53;;;10.30;39.25
10706;BME280;5404;42.656;23.336;2023-11-19T11:01:57;94846.59;;;10.49;38.65
10706;BME280;5404;42.656;23.336;2023-11-19T11:04:24;94850.06;;;8.71;40.78
10706;BME280;5404;42.656;23.336;2023-11-19T11:06:51;94842.41;;;9.18;40.78
10706;BME280;5404;42.656;23.336;2023-11-19T11:09:16;94844.91;;;8.94;39.82
10706;BME280;5404;42.656;23.336;2023-11-19T11:11:46;94825.53;;;7.95;43.48
10706;BME280;5404;42.656;23.336;2023-11-19T11:14:12;94828.03;;;8.58;41.60
10706;BME280;5404;42.656;23.336;2023-11-19T11:16:43;94813.53;;;7.85;43.54
10706;BME280;5404;42.656;23.336;2023-11-19T11:19:10;94828.03;;;8.58;42.34
10706;BME280;5404;42.656;23.336;2023-11-19T11:21:38;94826.19;;;8.38;42.40
10706;BME280;5404;42.656;23.336;2023-11-19T11:24:21;94843.78;;;8.85;41.59
10706;BME280;5404;42.656;23.336;2023-11-19T11:35:12;94815.41;;;8.09;42.45
10706;BME280;5404;42.656;23.336;2023-11-19T11:37:46;94830.84;;;8.30;42.66
10706;BME280;5404;42.656;23.336;2023-11-19T11:40:16;94823.09;;;8.29;42.18
10706;BME280;5404;42.656;23.336;2023-11-19T11:42:46;94809.78;;;8.59;41.95
10706;BME280;5404;42.656;23.336;2023-11-19T11:45:14;94804.81;;;8.40;42.29
10706;BME280;5404;42.656;23.336;2023-11-19T11:57:51;94807.81;;;7.44;44.95
10706;BME280;5404;42.656;23.336;2023-11-19T12:00:39;94805.47;;;7.39;45.26
10706;BME280;5404;42.656;23.336;2023-11-19T12:03:06;94824.03;;;6.73;46.07
10706;BME280;5404;42.656;23.336;2023-11-19T12:05:32;94824.03;;;6.66;47.47
10706;BME280;5404;42.656;23.336;2023-11-19T12:08:06;94823.28;;;6.87;46.52
10706;BME280;5404;42.656;23.336;2023-11-19T12:10:53;94811.28;;;7.41;45.13
10706;BME280;5404;42.656;23.336;2023-11-19T12:13:20;94799.31;;;7.24;44.91
10706;BME280;5404;42.656;23.336;2023-11-19T12:16:07;94798.13;;;7.04;46.51
10706;BME280;5404;42.656;23.336;2023-11-19T12:18:32;94798.91;;;6.83;46.77
10706;BME280;5404;42.656;23.336;2023-11-19T12:20:59;94796.16;;;6.55;47.39
10706;BME280;5404;42.656;23.336;2023-11-19T12:23:28;94789.94;;;6.47;47.30
10706;BME280;5404;42.656;23.336;2023-11-19T12:25:54;94786.03;;;6.27;47.44
10706;BME280;5404;42.656;23.336;2023-11-19T12:28:20;94787.50;;;5.96;48.79
10706;BME280;5404;42.656;23.336;2023-11-19T12:30:46;94787.84;;;5.91;48.97
10706;BME280;5404;42.656;23.336;2023-11-19T12:33:13;94784.03;;;6.03;49.18
10706;BME280;5404;42.656;23.336;2023-11-19T12:35:43;94778.38;;;4.98;51.48
10706;BME280;5404;42.656;23.336;2023-11-19T12:38:22;94771.34;;;4.87;52.09
10706;BME280;5404;42.656;23.336;2023-11-19T12:41:02;94729.56;;;4.70;50.81
10706;BME280;5404;42.656;23.336;2023-11-19T12:43:28;94768.91;;;5.22;50.75
10706;BME280;5404;42.656;23.336;2023-11-19T12:45:53;94769.53;;;5.05;51.22
10706;BME280;5404;42.656;23.336;2023-11-19T12:48:20;94770.00;;;5.14;51.65
10706;BME280;5404;42.656;23.336;2023-11-19T12:53:19;94762.09;;;4.88;52.09
10706;BME280;5404;42.656;23.336;2023-11-19T12:55:44;94764.72;;;4.77;52.82
10706;BME280;5404;42.656;23.336;2023-11-19T12:58:10;94742.50;;;4.47;53.46
10706;BME280;5404;42.656;23.336;2023-11-19T13:00:35;94763.31;;;4.50;54.41
10706;BME280;5404;42.656;23.336;2023-11-19T13:03:01;94710.06;;;4.43;54.11
10706;BME280;5404;42.656;23.336;2023-11-19T13:05:31;94753.84;;;5.18;53.37
10706;BME280;5404;42.656;23.336;2023-11-19T13:08:05;94740.78;;;5.30;52.58
10706;BME280;5404;42.656;23.336;2023-11-19T13:10:52;94747.28;;;5.22;52.49
10706;BME280;5404;42.656;23.336;2023-11-19T13:13:19;94754.56;;;5.15;52.64
10706;BME280;5404;42.656;23.336;2023-11-19T13:15:44;94750.41;;;5.28;51.70
10706;BME280;5404;42.656;23.336;2023-11-19T13:18:10;94753.00;;;5.10;52.45
10706;BME280;5404;42.656;23.336;2023-11-19T13:20:36;94751.41;;;5.02;52.85
10706;BME280;5404;42.656;23.336;2023-11-19T13:23:03;94751.47;;;5.12;53.26
10706;BME280;5404;42.656;23.336;2023-11-19T13:25:29;94730.50;;;4.88;52.86
10706;BME280;5404;42.656;23.336;2023-11-19T13:27:59;94738.50;;;4.78;53.31
10706;BME280;5404;42.656;23.336;2023-11-19T13:30:25;94733.72;;;5.11;53.09